sensor_id;sensor_type;location;lat;lon;timestamp;pressure;altitude;pressure_sealevel;temperature;humidity
34297;BME280;20564;42.902;25.336;2023-05-25T00:00:20;97139.63;;;11.95;100.00
34297;BME280;20564;42.902;25.336;2023-05-25T00:02:48;97138.94;;;11.93;100.00
34297;BME280;20564;42.902;25.336;2023-05-25T00:05:18;97141.78;;;11.81;100.00
34297;BME280;20564;42.902;25.336;2023-05-25T00:07:46;97142.72;;;11.80;100.00
34297;BME280;20564;42.902;25.336;2023-05-25T00:10:14;97137.78;;;11.77;100.00
34297;BME280;20564;42.902;25.336;2023-05-25T00:12:42;97139.03;;;11.73;100.00
34297;BME280;20564;42.902;25.336;2023-05-25T00:15:10;97140.31;;;11.69;100.00
34297;BME280;20564;42.902;25.336;2023-05-25T00:17:38;97130.91;;;11.67;100.00
34297;BME280;20564;42.902;25.336;2023-05-25T00:20:10;97134.78;;;11.63;100.00
34297;BME280;20564;42.902;25.336;2023-05-25T00:22:42;97135.66;;;11.63;100.00
34297;BME280;20564;42.902;25.336;2023-05-25T00:25:14;97136.31;;;11.65;100.00
34297;BME280;20564;42.902;25.336;2023-05-25T00:27:44;97131.19;;;11.64;100.00
34297;BME280;20564;42.902;25.336;2023-05-25T00:30:15;97136.75;;;11.61;100.00
34297;BME280;20564;42.902;25.336;2023-05-25T00:32:46;97130.13;;;11.56;100.00
34297;BME280;20564;42.902;25.336;2023-05-25T00:35:14;97134.56;;;11.56;100.00
34297;BME280;20564;42.902;25.336;2023-05-25T00:37:42;97139.84;;;11.56;100.00
34297;BME280;20564;42.902;25.336;2023-05-25T00:40:17;97139.84;;;11.56;100.00
34297;BME280;20564;42.902;25.336;2023-05-25T00:42:47;97145.41;;;11.53;100.00
34297;BME280;20564;42.902;25.336;2023-05-25T00:45:15;97131.25;;;11.54;100.00
34297;BME280;20564;42.902;25.336;2023-05-25T00:47:43;97144.03;;;11.49;100.00
34297;BME280;20564;42.902;25.336;2023-05-25T00:50:14;97142.06;;;11.51;100.00
34297;BME280;20564;42.902;25.336;2023-05-25T00:52:43;97143.34;;;11.47;100.00
34297;BME280;20564;42.902;25.336;2023-05-25T00:55:13;97135.72;;;11.44;100.00
34297;BME280;20564;42.902;25.336;2023-05-25T00:57:43;97140.47;;;11.40;100.00
34297;BME280;20564;42.902;25.336;2023-05-25T01:00:14;97135.34;;;11.39;100.00
34297;BME280;20564;42.902;25.336;2023-05-25T01:02:43;97139.63;;;11.40;100.00
34297;BME280;20564;42.902;25.336;2023-05-25T01:05:12;97132.72;;;11.39;100.00
34297;BME280;20564;42.902;25.336;2023-05-25T01:07:43;97137.28;;;11.37;100.00
34297;BME280;20564;42.902;25.336;2023-05-25T01:10:13;97135.25;;;11.30;100.00
34297;BME280;20564;42.902;25.336;2023-05-25T01:12:43;97147.75;;;11.28;100.00
34297;BME280;20564;42.902;25.336;2023-05-25T01:15:12;97146.38;;;11.24;100.00
34297;BME280;20564;42.902;25.336;2023-05-25T01:17:39;97151.66;;;11.24;100.00
34297;BME280;20564;42.902;25.336;2023-05-25T01:20:07;97136.69;;;11.15;100.00
34297;BME280;20564;42.902;25.336;2023-05-25T01:22:53;97142.81;;;11.16;100.00
34297;BME280;20564;42.902;25.336;2023-05-25T01:25:36;97139.47;;;11.14;100.00
34297;BME280;20564;42.902;25.336;2023-05-25T01:28:06;97137.00;;;11.12;100.00
34297;BME280;20564;42.902;25.336;2023-05-25T01:30:39;97137.84;;;11.13;100.00
34297;BME280;20564;42.902;25.336;2023-05-25T01:33:11;97133.38;;;11.13;100.00
34297;BME280;20564;42.902;25.336;2023-05-25T01:35:48;97132.03;;;11.09;100.00
34297;BME280;20564;42.902;25.336;2023-05-25T01:38:17;97137.56;;;11.06;100.00
34297;BME280;20564;42.902;25.336;2023-05-25T01:40:44;97142.56;;;11.09;100.00
34297;BME280;20564;42.902;25.336;2023-05-25T01:43:12;97142.84;;;11.06;100.00
34297;BME280;20564;42.902;25.336;2023-05-25T01:45:40;97141.19;;;11.05;100.00
34297;BME280;20564;42.902;25.336;2023-05-25T01:53:18;97138.31;;;10.98;100.00
34297;BME280;20564;42.902;25.336;2023-05-25T01:55:57;97134.28;;;10.94;100.00
34297;BME280;20564;42.902;25.336;2023-05-25T01:58:25;97137.50;;;10.88;100.00
34297;BME280;20564;42.902;25.336;2023-05-25T02:00:54;97138.03;;;10.92;100.00
34297;BME280;20564;42.902;25.336;2023-05-25T02:03:22;97149.81;;;10.97;100.00
34297;BME280;20564;42.902;25.336;2023-05-25T02:05:50;97140.38;;;10.95;100.00
34297;BME280;20564;42.902;25.336;2023-05-25T02:08:17;97144.84;;;10.94;100.00
34297;BME280;20564;42.902;25.336;2023-05-25T02:10:56;97153.16;;;10.90;100.00
34297;BME280;20564;42.902;25.336;2023-05-25T02:13:23;97154.13;;;10.89;100.00
34297;BME280;20564;42.902;25.336;2023-05-25T02:15:52;97153.00;;;10.91;100.00
34297;BME280;20564;42.902;25.336;2023-05-25T02:18:20;97159.81;;;10.84;100.00
34297;BME280;20564;42.902;25.336;2023-05-25T02:20:48;97155.53;;;10.83;100.00
34297;BME280;20564;42.902;25.336;2023-05-25T02:23:15;97154.28;;;10.77;100.00
34297;BME280;20564;42.902;25.336;2023-05-25T02:25:44;97155.13;;;10.78;100.00
34297;BME280;20564;42.902;25.336;2023-05-25T02:28:13;97155.38;;;10.75;100.00
34297;BME280;20564;42.902;25.336;2023-05-25T02:30:43;97159.00;;;10.74;100.00
34297;BME280;20564;42.902;25.336;2023-05-25T02:33:11;97158.06;;;10.65;100.00
34297;BME280;20564;42.902;25.336;2023-05-25T02:35:40;97159.16;;;10.62;100.00
34297;BME280;20564;42.902;25.336;2023-05-25T02:38:07;97165.25;;;10.63;100.00
34297;BME280;20564;42.902;25.336;2023-05-25T02:40:37;97170.53;;;10.63;100.00
34297;BME280;20564;42.902;25.336;2023-05-25T02:43:04;97161.97;;;10.61;100.00
34297;BME280;20564;42.902;25.336;2023-05-25T02:45:31;97169.84;;;10.61;100.00
34297;BME280;20564;42.902;25.336;2023-05-25T02:47:58;97171.78;;;10.59;100.00
34297;BME280;20564;42.902;25.336;2023-05-25T02:50:25;97174.41;;;10.59;100.00
34297;BME280;20564;42.902;25.336;2023-05-25T02:52:52;97170.94;;;10.58;100.00
34297;BME280;20564;42.902;25.336;2023-05-25T02:55:20;97180.09;;;10.64;100.00
34297;BME280;20564;42.902;25.336;2023-05-25T02:57:47;97186.03;;;10.66;100.00
34297;BME280;20564;42.902;25.336;2023-05-25T03:00:14;97188.94;;;10.63;100.00
34297;BME280;20564;42.902;25.336;2023-05-25T03:02:41;97184.50;;;10.63;100.00
34297;BME280;20564;42.902;25.336;2023-05-25T03:05:08;97182.84;;;10.62;100.00
34297;BME280;20564;42.902;25.336;2023-05-25T03:07:35;97188.94;;;10.63;100.00
34297;BME280;20564;42.902;25.336;2023-05-25T03:10:02;97194.75;;;10.67;100.00
34297;BME280;20564;42.902;25.336;2023-05-25T03:12:29;97195.91;;;10.64;100.00
34297;BME280;20564;42.902;25.336;2023-05-25T03:14:56;97197.13;;;10.70;100.00
34297;BME280;20564;42.902;25.336;2023-05-25T03:17:23;97201.56;;;10.79;100.00
34297;BME280;20564;42.902;25.336;2023-05-25T03:19:50;97198.91;;;10.79;100.00
34297;BME280;20564;42.902;25.336;2023-05-25T03:22:17;97195.56;;;10.86;100.00
34297;BME280;20564;42.902;25.336;2023-05-25T03:24:44;97200.84;;;10.86;100.00
34297;BME280;20564;42.902;25.336;2023-05-25T03:27:12;97205.84;;;10.90;100.00
34297;BME280;20564;42.902;25.336;2023-05-25T03:29:39;97203.88;;;10.92;100.00
34297;BME280;20564;42.902;25.336;2023-05-25T03:32:06;97202.19;;;11.00;100.00
34297;BME280;20564;42.902;25.336;2023-05-25T03:34:36;97197.88;;;11.09;100.00
34297;BME280;20564;42.902;25.336;2023-05-25T03:37:03;97200.47;;;11.19;100.00
34297;BME280;20564;42.902;25.336;2023-05-25T03:39:30;97200.31;;;11.30;100.00
34297;BME280;20564;42.902;25.336;2023-05-25T03:41:58;97201.53;;;11.35;100.00
34297;BME280;20564;42.902;25.336;2023-05-25T03:44:25;97194.00;;;11.41;100.00
34297;BME280;20564;42.902;25.336;2023-05-25T03:46:53;97197.88;;;11.46;100.00
34297;BME280;20564;42.902;25.336;2023-05-25T03:49:19;97200.34;;;11.48;100.00
34297;BME280;20564;42.902;25.336;2023-05-25T03:51:49;97189.31;;;11.62;100.00
34297;BME280;20564;42.902;25.336;2023-05-25T03:54:16;97205.34;;;11.78;100.00
34297;BME280;20564;42.902;25.336;2023-05-25T03:56:43;97204.78;;;11.85;100.00
34297;BME280;20564;42.902;25.336;2023-05-25T03:59:11;97201.63;;;11.99;100.00
34297;BME280;20564;42.902;25.336;2023-05-25T04:01:37;97201.41;;;12.10;100.00
34297;BME280;20564;42.902;25.336;2023-05-25T04:04:05;97207.16;;;12.23;100.00
34297;BME280;20564;42.902;25.336;2023-05-25T04:06:33;97207.72;;;12.45;100.00
34297;BME280;20564;42.902;25.336;2023-05-25T04:09:04;97199.00;;;12.70;100.00
34297;BME280;20564;42.902;25.336;2023-05-25T04:11:43;97199.38;;;13.01;100.00
34297;BME280;20564;42.902;25.336;2023-05-25T04:14:25;97207.88;;;13.31;100.00
34297;BME280;20564;42.902;25.336;2023-05-25T04:16:52;97206.06;;;13.66;100.00
34297;BME280;20564;42.902;25.336;2023-05-25T04:19:20;97206.69;;;14.02;100.00
34297;BME280;20564;42.902;25.336;2023-05-25T04:21:50;97204.41;;;14.40;100.00
34297;BME280;20564;42.902;25.336;2023-05-25T04:24:17;97204.81;;;14.78;100.00
34297;BME280;20564;42.902;25.336;2023-05-25T04:26:45;97202.78;;;15.12;100.00
34297;BME280;20564;42.902;25.336;2023-05-25T04:29:12;97199.38;;;15.51;100.00
34297;BME280;20564;42.902;25.336;2023-05-25T04:31:48;97198.94;;;15.87;100.00
34297;BME280;20564;42.902;25.336;2023-05-25T04:34:19;97192.63;;;16.19;98.91
34297;BME280;20564;42.902;25.336;2023-05-25T04:36:48;97201.19;;;16.52;96.85
34297;BME280;20564;42.902;25.336;2023-05-25T04:39:22;97206.00;;;16.80;96.80
34297;BME280;20564;42.902;25.336;2023-05-25T04:41:53;97206.72;;;17.11;93.57
34297;BME280;20564;42.902;25.336;2023-05-25T04:44:21;97206.81;;;17.33;91.14
34297;BME280;20564;42.902;25.336;2023-05-25T04:46:50;97202.44;;;17.40;89.78
34297;BME280;20564;42.902;25.336;2023-05-25T04:49:18;97210.25;;;17.56;89.73
34297;BME280;20564;42.902;25.336;2023-05-25T04:51:45;97211.63;;;17.82;89.19
34297;BME280;20564;42.902;25.336;2023-05-25T04:54:12;97203.97;;;18.08;86.53
34297;BME280;20564;42.902;25.336;2023-05-25T04:56:39;97197.56;;;18.24;85.39
34297;BME280;20564;42.902;25.336;2023-05-25T04:59:06;97201.81;;;18.55;85.32
34297;BME280;20564;42.902;25.336;2023-05-25T05:01:33;97190.59;;;18.81;84.32
34297;BME280;20564;42.902;25.336;2023-05-25T05:04:07;97197.00;;;19.15;82.70
34297;BME280;20564;42.902;25.336;2023-05-25T05:06:34;97199.84;;;19.41;83.01
34297;BME280;20564;42.902;25.336;2023-05-25T05:09:02;97199.03;;;19.69;81.43
34297;BME280;20564;42.902;25.336;2023-05-25T05:11:29;97203.03;;;19.86;79.98
34297;BME280;20564;42.902;25.336;2023-05-25T05:13:56;97196.53;;;20.09;78.00
34297;BME280;20564;42.902;25.336;2023-05-25T05:16:24;97187.75;;;20.28;77.40
34297;BME280;20564;42.902;25.336;2023-05-25T05:18:51;97195.06;;;20.61;77.60
34297;BME280;20564;42.902;25.336;2023-05-25T05:21:18;97191.75;;;20.65;77.46
34297;BME280;20564;42.902;25.336;2023-05-25T05:23:48;97182.94;;;20.78;76.98
34297;BME280;20564;42.902;25.336;2023-05-25T05:26:15;97188.28;;;20.98;76.69
34297;BME280;20564;42.902;25.336;2023-05-25T05:28:42;97202.28;;;21.07;74.62
34297;BME280;20564;42.902;25.336;2023-05-25T05:31:09;97205.34;;;21.17;75.08
34297;BME280;20564;42.902;25.336;2023-05-25T05:33:38;97200.22;;;21.15;77.21
34297;BME280;20564;42.902;25.336;2023-05-25T05:36:05;97206.63;;;21.21;76.26
34297;BME280;20564;42.902;25.336;2023-05-25T05:38:32;97217.53;;;21.39;76.67
34297;BME280;20564;42.902;25.336;2023-05-25T05:40:59;97214.81;;;21.59;75.94
34297;BME280;20564;42.902;25.336;2023-05-25T05:43:28;97217.50;;;21.66;73.25
34297;BME280;20564;42.902;25.336;2023-05-25T05:45:55;97209.13;;;22.01;71.58
34297;BME280;20564;42.902;25.336;2023-05-25T05:48:22;97210.88;;;22.33;68.72
34297;BME280;20564;42.902;25.336;2023-05-25T05:50:50;97203.97;;;22.51;67.05
34297;BME280;20564;42.902;25.336;2023-05-25T05:53:21;97212.56;;;22.59;68.02
34297;BME280;20564;42.902;25.336;2023-05-25T05:55:48;97221.94;;;22.82;68.46
34297;BME280;20564;42.902;25.336;2023-05-25T05:58:21;97218.31;;;23.01;64.45
34297;BME280;20564;42.902;25.336;2023-05-25T06:00:48;97206.81;;;23.19;63.35
34297;BME280;20564;42.902;25.336;2023-05-25T06:03:15;97212.31;;;23.49;63.54
34297;BME280;20564;42.902;25.336;2023-05-25T06:05:42;97212.50;;;23.73;63.00
34297;BME280;20564;42.902;25.336;2023-05-25T06:08:09;97212.44;;;23.98;61.67
34297;BME280;20564;42.902;25.336;2023-05-25T06:10:37;97217.22;;;24.14;62.07
34297;BME280;20564;42.902;25.336;2023-05-25T06:13:04;97218.84;;;24.15;60.27
34297;BME280;20564;42.902;25.336;2023-05-25T06:15:34;97211.97;;;24.19;59.57
34297;BME280;20564;42.902;25.336;2023-05-25T06:18:01;97214.25;;;24.34;60.75
34297;BME280;20564;42.902;25.336;2023-05-25T06:20:31;97219.66;;;24.64;58.82
34297;BME280;20564;42.902;25.336;2023-05-25T06:22:59;97215.00;;;24.71;59.07
34297;BME280;20564;42.902;25.336;2023-05-25T06:25:26;97219.38;;;24.72;58.14
34297;BME280;20564;42.902;25.336;2023-05-25T06:27:55;97230.16;;;24.84;57.55
34297;BME280;20564;42.902;25.336;2023-05-25T06:30:22;97232.88;;;24.96;57.53
34297;BME280;20564;42.902;25.336;2023-05-25T06:32:49;97234.16;;;24.93;57.48
34297;BME280;20564;42.902;25.336;2023-05-25T06:35:16;97234.88;;;25.00;58.50
34297;BME280;20564;42.902;25.336;2023-05-25T06:37:49;97245.50;;;25.25;57.89
34297;BME280;20564;42.902;25.336;2023-05-25T06:40:16;97242.69;;;25.44;55.48
34297;BME280;20564;42.902;25.336;2023-05-25T06:42:43;97237.66;;;25.59;54.55
34297;BME280;20564;42.902;25.336;2023-05-25T06:45:10;97238.84;;;25.63;53.20
34297;BME280;20564;42.902;25.336;2023-05-25T06:47:37;97244.34;;;25.68;53.37
34297;BME280;20564;42.902;25.336;2023-05-25T06:50:05;97240.22;;;25.78;52.78
34297;BME280;20564;42.902;25.336;2023-05-25T06:52:32;97251.81;;;25.66;52.77
34297;BME280;20564;42.902;25.336;2023-05-25T06:55:00;97245.75;;;25.71;51.72
34297;BME280;20564;42.902;25.336;2023-05-25T06:57:28;97247.59;;;25.70;52.18
34297;BME280;20564;42.902;25.336;2023-05-25T06:59:56;97247.59;;;25.70;52.67
34297;BME280;20564;42.902;25.336;2023-05-25T07:02:22;97246.69;;;25.88;51.40
34297;BME280;20564;42.902;25.336;2023-05-25T07:04:51;97251.72;;;25.85;52.16
34297;BME280;20564;42.902;25.336;2023-05-25T07:07:18;97245.63;;;26.01;52.44
34297;BME280;20564;42.902;25.336;2023-05-25T07:09:45;97252.31;;;25.75;52.63
34297;BME280;20564;42.902;25.336;2023-05-25T07:12:13;97249.03;;;25.49;52.55
34297;BME280;20564;42.902;25.336;2023-05-25T07:14:40;97248.78;;;25.63;54.08
34297;BME280;20564;42.902;25.336;2023-05-25T07:17:07;97251.00;;;25.78;51.74
34297;BME280;20564;42.902;25.336;2023-05-25T07:19:34;97249.50;;;25.93;51.28
34297;BME280;20564;42.902;25.336;2023-05-25T07:22:01;97244.94;;;25.94;51.01
34297;BME280;20564;42.902;25.336;2023-05-25T07:24:32;97248.91;;;26.03;50.90
34297;BME280;20564;42.902;25.336;2023-05-25T07:26:58;97247.34;;;26.19;50.97
34297;BME280;20564;42.902;25.336;2023-05-25T07:29:27;97257.97;;;26.49;50.67
34297;BME280;20564;42.902;25.336;2023-05-25T07:31:54;97257.00;;;26.43;50.42
34297;BME280;20564;42.902;25.336;2023-05-25T07:34:32;97254.13;;;26.21;50.39
34297;BME280;20564;42.902;25.336;2023-05-25T07:37:00;97257.28;;;26.30;50.95
34297;BME280;20564;42.902;25.336;2023-05-25T07:39:27;97252.78;;;26.59;49.66
34297;BME280;20564;42.902;25.336;2023-05-25T07:41:58;97246.09;;;26.79;49.63
34297;BME280;20564;42.902;25.336;2023-05-25T07:44:25;97256.34;;;26.77;48.80
34297;BME280;20564;42.902;25.336;2023-05-25T07:46:55;97250.41;;;26.91;48.57
34297;BME280;20564;42.902;25.336;2023-05-25T07:49:23;97249.09;;;27.11;49.19
34297;BME280;20564;42.902;25.336;2023-05-25T07:51:53;97247.81;;;27.30;48.56
34297;BME280;20564;42.902;25.336;2023-05-25T07:54:27;97249.94;;;27.62;48.46
34297;BME280;20564;42.902;25.336;2023-05-25T07:56:55;97248.91;;;28.02;47.78
34297;BME280;20564;42.902;25.336;2023-05-25T07:59:23;97244.38;;;28.29;46.85
34297;BME280;20564;42.902;25.336;2023-05-25T08:01:50;97254.81;;;28.38;46.42
34297;BME280;20564;42.902;25.336;2023-05-25T08:04:17;97253.13;;;28.58;45.80
34297;BME280;20564;42.902;25.336;2023-05-25T08:06:45;97249.88;;;28.56;45.65
34297;BME280;20564;42.902;25.336;2023-05-25T08:09:12;97240.19;;;28.60;46.19
34297;BME280;20564;42.902;25.336;2023-05-25T08:11:39;97249.13;;;28.61;46.46
34297;BME280;20564;42.902;25.336;2023-05-25T08:14:06;97252.13;;;28.65;45.83
34297;BME280;20564;42.902;25.336;2023-05-25T08:16:34;97232.59;;;28.63;44.92
34297;BME280;20564;42.902;25.336;2023-05-25T08:19:02;97240.06;;;28.77;45.90
34297;BME280;20564;42.902;25.336;2023-05-25T08:21:29;97232.81;;;28.83;45.59
34297;BME280;20564;42.902;25.336;2023-05-25T08:24:00;97232.41;;;28.69;45.92
34297;BME280;20564;42.902;25.336;2023-05-25T08:26:29;97235.84;;;28.87;45.35
34297;BME280;20564;42.902;25.336;2023-05-25T08:29:22;97231.78;;;29.16;45.39
34297;BME280;20564;42.902;25.336;2023-05-25T08:31:49;97228.09;;;29.27;44.66
34297;BME280;20564;42.902;25.336;2023-05-25T08:34:16;97230.09;;;29.42;43.51
34297;BME280;20564;42.902;25.336;2023-05-25T08:36:43;97229.34;;;29.15;41.89
34297;BME280;20564;42.902;25.336;2023-05-25T08:39:14;97234.16;;;29.07;42.50
34297;BME280;20564;42.902;25.336;2023-05-25T08:41:43;97232.34;;;28.91;41.31
34297;BME280;20564;42.902;25.336;2023-05-25T08:44:10;97234.28;;;28.96;41.28
34297;BME280;20564;42.902;25.336;2023-05-25T08:46:40;97233.56;;;29.00;41.96
34297;BME280;20564;42.902;25.336;2023-05-25T08:49:15;97228.72;;;28.80;41.86
34297;BME280;20564;42.902;25.336;2023-05-25T08:51:48;97228.59;;;28.43;43.48
34297;BME280;20564;42.902;25.336;2023-05-25T08:54:18;97240.31;;;28.27;43.22
34297;BME280;20564;42.902;25.336;2023-05-25T08:56:54;97222.06;;;28.39;43.98
34297;BME280;20564;42.902;25.336;2023-05-25T09:00:24;97230.09;;;28.34;43.49
34297;BME280;20564;42.902;25.336;2023-05-25T09:02:33;97228.44;;;28.11;43.03
34297;BME280;20564;42.902;25.336;2023-05-25T09:05:01;97221.06;;;27.68;45.14
34297;BME280;20564;42.902;25.336;2023-05-25T09:07:30;97222.25;;;27.72;46.15
34297;BME280;20564;42.902;25.336;2023-05-25T09:10:01;97219.53;;;28.10;45.90
34297;BME280;20564;42.902;25.336;2023-05-25T09:12:33;97205.31;;;28.42;44.86
34297;BME280;20564;42.902;25.336;2023-05-25T09:15:11;97205.13;;;28.49;42.16
34297;BME280;20564;42.902;25.336;2023-05-25T09:17:53;97204.59;;;28.30;43.68
34297;BME280;20564;42.902;25.336;2023-05-25T09:20:20;97212.94;;;28.01;44.02
34297;BME280;20564;42.902;25.336;2023-05-25T09:22:49;97209.63;;;27.77;45.96
34297;BME280;20564;42.902;25.336;2023-05-25T09:25:23;97204.34;;;27.71;47.43
34297;BME280;20564;42.902;25.336;2023-05-25T09:27:54;97204.22;;;27.60;46.58
34297;BME280;20564;42.902;25.336;2023-05-25T09:30:30;97198.19;;;27.36;47.87
34297;BME280;20564;42.902;25.336;2023-05-25T09:35:39;97192.78;;;27.20;46.60
34297;BME280;20564;42.902;25.336;2023-05-25T09:38:32;97193.75;;;27.47;47.86
34297;BME280;20564;42.902;25.336;2023-05-25T09:41:00;97201.00;;;27.63;47.02
34297;BME280;20564;42.902;25.336;2023-05-25T09:43:31;97207.94;;;27.54;45.96
34297;BME280;20564;42.902;25.336;2023-05-25T09:46:13;97202.66;;;26.97;47.11
34297;BME280;20564;42.902;25.336;2023-05-25T09:48:40;97204.03;;;26.66;48.22
34297;BME280;20564;42.902;25.336;2023-05-25T09:51:10;97204.63;;;26.28;47.91
34297;BME280;20564;42.902;25.336;2023-05-25T09:53:37;97199.41;;;26.38;47.83
34297;BME280;20564;42.902;25.336;2023-05-25T09:56:08;97192.22;;;26.55;46.69
34297;BME280;20564;42.902;25.336;2023-05-25T09:58:41;97191.56;;;26.65;48.38
34297;BME280;20564;42.902;25.336;2023-05-25T10:01:09;97184.63;;;27.14;48.41
34297;BME280;20564;42.902;25.336;2023-05-25T10:03:44;97176.34;;;27.60;46.87
34297;BME280;20564;42.902;25.336;2023-05-25T10:06:30;97167.47;;;27.81;43.78
34297;BME280;20564;42.902;25.336;2023-05-25T10:09:08;97174.28;;;27.67;45.47
34297;BME280;20564;42.902;25.336;2023-05-25T10:11:50;97177.03;;;27.50;45.79
34297;BME280;20564;42.902;25.336;2023-05-25T10:14:28;97173.41;;;27.61;45.82
34297;BME280;20564;42.902;25.336;2023-05-25T10:17:02;97165.66;;;27.87;44.05
34297;BME280;20564;42.902;25.336;2023-05-25T10:22:29;97157.09;;;27.95;43.35
34297;BME280;20564;42.902;25.336;2023-05-25T10:25:20;97146.00;;;28.19;42.25
34297;BME280;20564;42.902;25.336;2023-05-25T10:28:02;97148.91;;;28.34;41.62
34297;BME280;20564;42.902;25.336;2023-05-25T10:30:31;97142.78;;;28.44;39.58
34297;BME280;20564;42.902;25.336;2023-05-25T10:33:01;97150.78;;;28.11;40.28
34297;BME280;20564;42.902;25.336;2023-05-25T10:35:33;97140.19;;;27.83;40.48
34297;BME280;20564;42.902;25.336;2023-05-25T10:38:17;97127.00;;;27.31;42.35
34297;BME280;20564;42.902;25.336;2023-05-25T10:40:48;97131.16;;;27.38;42.48
34297;BME280;20564;42.902;25.336;2023-05-25T10:43:18;97132.00;;;27.39;40.92
34297;BME280;20564;42.902;25.336;2023-05-25T10:45:48;97113.53;;;26.97;42.74
34297;BME280;20564;42.902;25.336;2023-05-25T10:48:15;97136.53;;;26.83;45.16
34297;BME280;20564;42.902;25.336;2023-05-25T10:50:42;97134.66;;;26.38;46.52
34297;BME280;20564;42.902;25.336;2023-05-25T10:53:15;97127.50;;;26.15;45.66
34297;BME280;20564;42.902;25.336;2023-05-25T10:58:22;97128.91;;;26.80;40.49
34297;BME280;20564;42.902;25.336;2023-05-25T11:00:59;97126.47;;;27.12;39.65
34297;BME280;20564;42.902;25.336;2023-05-25T11:09:26;97116.53;;;27.56;39.91
34297;BME280;20564;42.902;25.336;2023-05-25T11:14:35;97117.56;;;27.11;43.68
34297;BME280;20564;42.902;25.336;2023-05-25T11:17:17;97121.28;;;26.93;44.89
34297;BME280;20564;42.902;25.336;2023-05-25T11:19:49;97120.66;;;26.69;44.14
34297;BME280;20564;42.902;25.336;2023-05-25T11:22:31;97113.53;;;26.63;44.44
34297;BME280;20564;42.902;25.336;2023-05-25T11:25:03;97102.81;;;26.52;43.52
34297;BME280;20564;42.902;25.336;2023-05-25T11:27:49;97100.22;;;26.45;45.22
34297;BME280;20564;42.902;25.336;2023-05-25T11:30:26;97094.13;;;26.21;44.15
34297;BME280;20564;42.902;25.336;2023-05-25T11:32:53;97108.63;;;26.03;45.28
34297;BME280;20564;42.902;25.336;2023-05-25T11:35:20;97117.16;;;25.71;45.19
34297;BME280;20564;42.902;25.336;2023-05-25T11:37:51;97140.50;;;24.95;50.66
34297;BME280;20564;42.902;25.336;2023-05-25T11:40:22;97135.19;;;24.05;54.89
34297;BME280;20564;42.902;25.336;2023-05-25T11:42:51;97137.31;;;23.66;65.51
34297;BME280;20564;42.902;25.336;2023-05-25T11:45:21;97127.75;;;23.33;72.79
34297;BME280;20564;42.902;25.336;2023-05-25T11:47:49;97127.44;;;23.23;74.99
34297;BME280;20564;42.902;25.336;2023-05-25T11:50:16;97104.50;;;23.02;77.74
34297;BME280;20564;42.902;25.336;2023-05-25T11:52:43;97107.88;;;22.98;79.94
34297;BME280;20564;42.902;25.336;2023-05-25T11:55:13;97105.69;;;22.81;82.89
34297;BME280;20564;42.902;25.336;2023-05-25T11:57:40;97119.81;;;22.70;86.15
34297;BME280;20564;42.902;25.336;2023-05-25T12:00:08;97113.88;;;22.68;87.73
34297;BME280;20564;42.902;25.336;2023-05-25T12:02:39;97113.44;;;22.71;89.12
34297;BME280;20564;42.902;25.336;2023-05-25T12:05:11;97121.31;;;22.66;87.51
34297;BME280;20564;42.902;25.336;2023-05-25T12:07:42;97136.44;;;22.60;90.58
34297;BME280;20564;42.902;25.336;2023-05-25T12:10:12;97138.88;;;22.62;89.45
34297;BME280;20564;42.902;25.336;2023-05-25T12:12:50;97138.34;;;22.53;82.88
34297;BME280;20564;42.902;25.336;2023-05-25T12:15:20;97161.56;;;22.34;81.79
34297;BME280;20564;42.902;25.336;2023-05-25T12:17:48;97182.53;;;21.99;74.87
34297;BME280;20564;42.902;25.336;2023-05-25T12:20:17;97186.63;;;21.37;70.15
34297;BME280;20564;42.902;25.336;2023-05-25T12:22:46;97188.69;;;21.08;66.40
34297;BME280;20564;42.902;25.336;2023-05-25T12:25:13;97209.84;;;20.57;69.05
34297;BME280;20564;42.902;25.336;2023-05-25T12:27:44;97232.03;;;19.89;73.64
34297;BME280;20564;42.902;25.336;2023-05-25T12:30:11;97239.03;;;18.85;76.89
34297;BME280;20564;42.902;25.336;2023-05-25T12:33:00;97253.53;;;18.24;80.53
34297;BME280;20564;42.902;25.336;2023-05-25T12:35:47;97243.25;;;17.32;80.05
34297;BME280;20564;42.902;25.336;2023-05-25T12:38:22;97254.44;;;16.90;87.29
34297;BME280;20564;42.902;25.336;2023-05-25T12:41:06;97259.00;;;16.50;95.83
34297;BME280;20564;42.902;25.336;2023-05-25T12:43:39;97282.38;;;16.32;100.00
34297;BME280;20564;42.902;25.336;2023-05-25T12:46:09;97299.03;;;16.18;100.00
34297;BME280;20564;42.902;25.336;2023-05-25T12:48:38;97288.19;;;15.88;100.00
34297;BME280;20564;42.902;25.336;2023-05-25T12:51:06;97293.16;;;15.83;100.00
34297;BME280;20564;42.902;25.336;2023-05-25T12:53:49;97285.22;;;15.75;100.00
34297;BME280;20564;42.902;25.336;2023-05-25T12:56:23;97256.06;;;15.50;100.00
34297;BME280;20564;42.902;25.336;2023-05-25T12:58:51;97251.78;;;15.41;100.00
34297;BME280;20564;42.902;25.336;2023-05-25T13:01:20;97221.03;;;15.07;100.00
34297;BME280;20564;42.902;25.336;2023-05-25T13:03:48;97201.31;;;14.93;100.00
34297;BME280;20564;42.902;25.336;2023-05-25T13:06:15;97209.44;;;15.08;100.00
34297;BME280;20564;42.902;25.336;2023-05-25T13:08:44;97207.09;;;15.22;100.00
34297;BME280;20564;42.902;25.336;2023-05-25T13:11:12;97205.69;;;15.42;100.00
34297;BME280;20564;42.902;25.336;2023-05-25T13:13:39;97211.63;;;15.69;100.00
34297;BME280;20564;42.902;25.336;2023-05-25T13:16:06;97202.38;;;15.96;100.00
34297;BME280;20564;42.902;25.336;2023-05-25T13:18:33;97202.75;;;16.15;100.00
34297;BME280;20564;42.902;25.336;2023-05-25T13:21:01;97197.59;;;16.45;100.00